METAR Formatted Surface Weather Observation
Issued by NWS

Home | Current Version | Previous Version | Text Only | Print | Product List | Glossary On
Versions: 1 2 3 4 5 6 7 8 9 10 11 12 13 14
000
SAUS43 KMQT 302357 COR
MTRP59
METAR KP59 302351Z AUTO 33006KT 19/13 A3007 RMK AO1 SLP176 T01940128
10217 20194 58004



USA.gov is the U.S. government's official web portal to all federal, state and local government web resources and services.